createdAt,value
2023-11-10T00:02:09.703Z,6.80
2023-11-10T00:04:41.257Z,5.37
2023-11-10T00:07:10.813Z,3.23
2023-11-10T00:09:42.403Z,5.67
2023-11-10T00:12:11.597Z,4.97
2023-11-10T00:14:41.390Z,3.77
2023-11-10T00:17:11.954Z,4.70
2023-11-10T00:19:45.594Z,5.70
2023-11-10T00:22:14.846Z,6.97
2023-11-10T00:24:49.786Z,4.30
2023-11-10T00:27:18.602Z,3.30
2023-11-10T00:29:49.390Z,3.60
2023-11-10T00:32:19.089Z,4.47
2023-11-10T00:34:48.350Z,4.33
2023-11-10T00:37:17.261Z,4.80
2023-11-10T00:39:48.279Z,4.27
2023-11-10T00:42:17.113Z,8.53
2023-11-10T00:44:47.049Z,4.50
2023-11-10T00:47:16.119Z,7.60
2023-11-10T00:49:45.569Z,6.27
2023-11-10T00:52:14.274Z,8.00
2023-11-10T00:54:43.676Z,13.60
2023-11-10T00:57:14.203Z,15.20
2023-11-10T00:59:43.590Z,10.20
2023-11-10T01:02:12.787Z,7.43
2023-11-10T01:04:41.886Z,9.43
2023-11-10T01:07:11.408Z,8.50
2023-11-10T01:09:41.545Z,5.97
2023-11-10T01:12:10.609Z,10.13
2023-11-10T01:14:41.668Z,7.40
2023-11-10T01:17:10.842Z,9.80
2023-11-10T01:19:40.305Z,9.67
2023-11-10T01:22:09.550Z,10.70
2023-11-10T01:24:39.666Z,10.67
2023-11-10T01:27:09.639Z,11.90
2023-11-10T01:29:39.038Z,8.17
2023-11-10T01:32:10.428Z,7.70
2023-11-10T01:34:39.973Z,6.33
2023-11-10T01:37:09.599Z,6.77
2023-11-10T01:39:39.872Z,6.37
2023-11-10T01:42:10.312Z,7.77
2023-11-10T01:44:40.294Z,4.57
2023-11-10T01:47:12.464Z,5.43
2023-11-10T01:49:42.483Z,8.80
2023-11-10T01:52:13.747Z,6.07
2023-11-10T01:54:43.056Z,6.57
2023-11-10T01:57:12.484Z,15.07
2023-11-10T01:59:43.859Z,6.47
2023-11-10T02:02:16.328Z,6.70
2023-11-10T02:04:45.735Z,6.90
2023-11-10T02:07:15.121Z,7.97
2023-11-10T02:09:44.490Z,5.30
2023-11-10T02:12:14.188Z,8.40
2023-11-10T02:14:44.283Z,7.27
2023-11-10T02:17:13.246Z,8.47
2023-11-10T02:19:44.180Z,7.90
2023-11-10T02:22:13.189Z,4.63
2023-11-10T02:24:43.717Z,5.27
2023-11-10T02:27:14.271Z,4.50
2023-11-10T02:29:44.209Z,6.43
2023-11-10T02:32:17.041Z,5.73
2023-11-10T02:34:46.953Z,4.93
2023-11-10T02:37:16.737Z,3.10
2023-11-10T02:39:45.754Z,5.33
2023-11-10T02:42:16.399Z,3.87
2023-11-10T02:44:46.228Z,3.63
2023-11-10T02:47:15.458Z,4.40
2023-11-10T02:49:45.096Z,2.97
2023-11-10T02:52:14.482Z,4.60
2023-11-10T02:54:43.674Z,2.73
2023-11-10T02:57:12.797Z,3.37
2023-11-10T02:59:44.428Z,3.83
2023-11-10T03:02:15.757Z,3.53
2023-11-10T03:04:46.971Z,6.53
2023-11-10T03:07:16.440Z,2.70
2023-11-10T03:09:46.239Z,3.13
2023-11-10T03:12:34.036Z,3.13
2023-11-10T03:15:05.347Z,4.40
2023-11-10T03:17:35.279Z,5.90
2023-11-10T03:20:04.493Z,4.13
2023-11-10T03:22:34.350Z,4.60
2023-11-10T03:25:03.855Z,5.90
2023-11-10T03:27:33.777Z,8.00
2023-11-10T03:30:03.344Z,3.93
2023-11-10T03:32:35.081Z,7.50
2023-11-10T03:35:04.688Z,5.40
2023-11-10T03:37:33.775Z,4.90
2023-11-10T03:40:02.681Z,4.43
2023-11-10T03:42:33.597Z,6.43
2023-11-10T03:45:02.556Z,3.70
2023-11-10T03:47:31.526Z,7.77
2023-11-10T03:50:02.156Z,2.90
2023-11-10T03:52:31.997Z,2.73
2023-11-10T03:55:02.593Z,4.20
2023-11-10T03:57:31.852Z,1.93
2023-11-10T04:00:02.525Z,3.77
2023-11-10T04:02:31.853Z,2.37
2023-11-10T04:05:02.671Z,4.17
2023-11-10T04:07:31.974Z,6.30
2023-11-10T04:10:02.216Z,2.83
2023-11-10T04:12:32.534Z,3.53
2023-11-10T04:15:02.562Z,2.60
2023-11-10T04:17:31.870Z,2.53
2023-11-10T04:20:02.364Z,3.50
2023-11-10T04:22:32.406Z,2.67
2023-11-10T04:25:01.070Z,5.23
2023-11-10T04:27:31.619Z,10.03
2023-11-10T04:30:01.731Z,10.93
2023-11-10T04:32:42.884Z,13.27
2023-11-10T04:35:18.073Z,23.20
2023-11-10T04:37:47.861Z,20.53
2023-11-10T04:40:16.903Z,16.50
2023-11-10T04:42:46.929Z,13.13
2023-11-10T04:45:16.421Z,19.10
2023-11-10T04:47:46.867Z,20.50
2023-11-10T04:50:15.421Z,12.63
2023-11-10T04:52:47.037Z,12.57
2023-11-10T04:55:15.719Z,12.90
2023-11-10T04:57:45.555Z,13.47
2023-11-10T05:00:15.494Z,10.20
2023-11-10T05:02:46.208Z,9.13
2023-11-10T05:05:16.109Z,10.87
2023-11-10T05:07:47.551Z,16.87
2023-11-10T05:10:16.508Z,11.40
2023-11-10T05:12:46.038Z,19.77
2023-11-10T05:15:16.706Z,14.80
2023-11-10T05:17:47.343Z,13.33
2023-11-10T05:20:17.727Z,13.87
2023-11-10T05:22:48.857Z,11.37
2023-11-10T05:25:18.868Z,10.77
2023-11-10T05:27:48.694Z,20.30
2023-11-10T05:30:17.281Z,7.50
2023-11-10T05:32:46.631Z,7.30
2023-11-10T05:35:15.632Z,6.20
2023-11-10T05:37:44.784Z,8.40
2023-11-10T05:40:16.314Z,6.13
2023-11-10T05:42:46.209Z,8.07
2023-11-10T05:45:15.147Z,4.13
2023-11-10T05:47:44.672Z,6.73
2023-11-10T05:50:15.725Z,5.27
2023-11-10T05:52:45.495Z,2.10
2023-11-10T05:55:16.018Z,3.80
2023-11-10T05:57:45.481Z,6.40
2023-11-10T06:00:15.587Z,8.30
2023-11-10T06:02:46.472Z,13.10
2023-11-10T06:05:17.325Z,6.83
2023-11-10T06:07:46.406Z,5.70
2023-11-10T06:10:19.054Z,7.50
2023-11-10T06:12:48.361Z,7.60
2023-11-10T06:15:17.279Z,9.07
2023-11-10T06:17:46.857Z,9.43
2023-11-10T06:20:25.443Z,5.70
2023-11-10T06:22:54.761Z,10.30
2023-11-10T06:25:26.330Z,5.80
2023-11-10T06:27:55.334Z,7.03
2023-11-10T06:30:25.149Z,6.70
2023-11-10T06:32:53.708Z,5.80
2023-11-10T06:35:23.119Z,6.10
2023-11-10T06:37:52.614Z,5.57
2023-11-10T06:40:22.130Z,4.07
2023-11-10T06:42:53.572Z,5.10
2023-11-10T06:45:22.651Z,3.57
2023-11-10T06:47:53.276Z,3.17
2023-11-10T06:50:24.758Z,3.20
2023-11-10T06:52:53.941Z,4.60
2023-11-10T06:55:23.443Z,4.53
2023-11-10T06:57:54.516Z,2.47
2023-11-10T07:00:28.991Z,2.77
2023-11-10T07:02:59.704Z,3.37
2023-11-10T07:05:28.460Z,2.13
2023-11-10T07:07:57.810Z,3.30
2023-11-10T07:10:30.161Z,4.00
2023-11-10T07:13:00.383Z,3.30
2023-11-10T07:15:29.511Z,4.40
2023-11-10T07:17:58.590Z,2.30
2023-11-10T07:20:27.651Z,2.50
2023-11-10T07:22:56.512Z,2.83
2023-11-10T07:25:27.450Z,2.20
2023-11-10T07:27:58.274Z,6.30
2023-11-10T07:30:30.249Z,5.17
2023-11-10T07:32:59.317Z,1.60
2023-11-10T07:35:28.037Z,1.90
2023-11-10T07:37:59.606Z,1.40
2023-11-10T07:40:28.388Z,1.67
2023-11-10T07:42:57.420Z,2.90
2023-11-10T07:45:26.487Z,3.00
2023-11-10T07:47:56.738Z,4.80
2023-11-10T07:50:26.373Z,4.73
2023-11-10T07:52:55.635Z,3.83
2023-11-10T07:55:25.568Z,3.43
2023-11-10T07:57:55.197Z,4.33
2023-11-10T08:00:24.502Z,4.70
2023-11-10T08:02:54.951Z,5.90
2023-11-10T08:05:26.018Z,4.70
2023-11-10T08:07:57.024Z,3.53
2023-11-10T08:10:25.848Z,3.07
2023-11-10T08:12:54.936Z,8.30
2023-11-10T08:15:27.272Z,7.20
2023-11-10T08:17:57.037Z,7.77
2023-11-10T08:20:27.803Z,12.70
2023-11-10T08:22:57.983Z,12.30
2023-11-10T08:25:26.681Z,12.00
2023-11-10T08:27:56.212Z,9.80
2023-11-10T08:30:25.496Z,9.80
2023-11-10T08:32:54.637Z,7.33
2023-11-10T08:35:24.461Z,7.00
2023-11-10T08:37:54.522Z,6.40
2023-11-10T08:40:23.925Z,8.27
2023-11-10T08:42:52.517Z,5.83
2023-11-10T08:45:24.187Z,9.33
2023-11-10T08:47:53.144Z,8.90
2023-11-10T08:50:22.078Z,7.27
2023-11-10T08:52:50.874Z,4.23
2023-11-10T08:55:22.797Z,3.90
2023-11-10T08:57:51.829Z,9.37
2023-11-10T09:00:20.258Z,5.50
2023-11-10T09:02:51.155Z,14.70
2023-11-10T09:05:20.862Z,13.77
2023-11-10T09:07:50.133Z,13.30
2023-11-10T09:10:20.255Z,26.50
2023-11-10T09:12:50.565Z,16.57
2023-11-10T09:15:19.621Z,5.07
2023-11-10T09:17:50.634Z,3.83
2023-11-10T09:20:19.682Z,2.30
2023-11-10T09:22:50.819Z,2.60
2023-11-10T09:25:22.031Z,2.53
2023-11-10T09:27:53.728Z,1.00
2023-11-10T09:30:22.358Z,1.70
2023-11-10T09:32:51.292Z,1.37
2023-11-10T09:35:20.588Z,2.80
2023-11-10T09:37:49.313Z,1.17
2023-11-10T09:40:21.154Z,1.53
2023-11-10T09:42:52.353Z,3.00
2023-11-10T09:45:23.565Z,2.03
2023-11-10T09:47:53.411Z,1.63
2023-11-10T09:50:24.678Z,2.10
2023-11-10T09:52:55.099Z,2.30
2023-11-10T09:55:24.027Z,1.63
2023-11-10T09:57:57.015Z,4.73
2023-11-10T10:00:26.138Z,2.00
2023-11-10T10:02:55.331Z,3.00
2023-11-10T10:05:24.325Z,3.67
2023-11-10T10:07:53.747Z,1.57
2023-11-10T10:10:24.079Z,1.30
2023-11-10T10:12:54.921Z,2.93
2023-11-10T10:15:31.534Z,2.40
2023-11-10T10:18:06.696Z,2.27
2023-11-10T10:20:38.664Z,1.23
2023-11-10T10:23:09.392Z,1.30
2023-11-10T10:25:39.725Z,1.37
2023-11-10T10:28:10.610Z,1.50
2023-11-10T10:30:39.955Z,2.10
2023-11-10T10:33:09.671Z,1.40
2023-11-10T10:35:38.429Z,1.60
2023-11-10T10:38:10.791Z,1.20
2023-11-10T10:40:40.630Z,1.17
2023-11-10T10:43:11.931Z,1.20
2023-11-10T10:45:41.530Z,2.83
2023-11-10T10:48:12.040Z,1.57
2023-11-10T10:50:41.840Z,1.83
2023-11-10T10:53:12.634Z,1.93
2023-11-10T10:55:42.273Z,2.57
2023-11-10T10:58:14.837Z,1.60
2023-11-10T11:00:43.843Z,2.33
2023-11-10T11:03:27.280Z,3.73
2023-11-10T11:06:10.083Z,1.70
2023-11-10T11:08:51.682Z,1.37
2023-11-10T11:11:35.886Z,1.63
2023-11-10T11:14:47.343Z,2.40
2023-11-10T11:17:39.112Z,3.10
2023-11-10T11:20:11.485Z,2.03
2023-11-10T11:22:41.224Z,1.70
2023-11-10T11:25:11.535Z,2.10
2023-11-10T11:27:40.674Z,3.17
2023-11-10T11:30:13.696Z,3.47
2023-11-10T11:32:44.424Z,1.77
2023-11-10T11:35:16.525Z,3.90
2023-11-10T11:37:46.130Z,2.80
2023-11-10T11:40:15.859Z,1.77
2023-11-10T11:42:45.264Z,3.97
2023-11-10T11:45:17.207Z,3.37
2023-11-10T11:47:46.015Z,3.73
2023-11-10T11:50:15.103Z,2.60
2023-11-10T11:52:46.784Z,2.80
2023-11-10T11:55:16.875Z,2.67
2023-11-10T11:57:48.364Z,2.90
2023-11-10T12:00:19.503Z,3.00
2023-11-10T12:02:48.430Z,7.60
2023-11-10T12:05:17.034Z,4.53
2023-11-10T12:07:46.107Z,3.20
2023-11-10T12:10:17.987Z,3.00
2023-11-10T12:12:47.452Z,2.03
2023-11-10T12:15:19.652Z,3.20
2023-11-10T12:17:49.109Z,16.07
2023-11-10T12:20:18.862Z,10.60
2023-11-10T12:22:55.428Z,7.57
2023-11-10T12:25:28.065Z,2.73
2023-11-10T12:27:56.956Z,3.90
2023-11-10T12:30:27.794Z,2.73
2023-11-10T12:32:57.416Z,4.07
2023-11-10T12:35:26.923Z,2.63
2023-11-10T12:37:56.920Z,2.63
2023-11-10T12:40:27.722Z,15.87
2023-11-10T12:42:58.466Z,11.03
2023-11-10T12:45:30.488Z,4.40
2023-11-10T12:48:06.036Z,4.03
2023-11-10T12:50:36.601Z,2.93
2023-11-10T12:53:06.561Z,3.43
2023-11-10T12:55:35.439Z,6.10
2023-11-10T12:58:06.210Z,4.43
2023-11-10T13:00:39.816Z,2.90
2023-11-10T13:03:08.291Z,4.40
2023-11-10T13:05:36.763Z,4.30
2023-11-10T13:08:06.199Z,3.10
2023-11-10T13:10:34.857Z,5.73
2023-11-10T13:13:04.628Z,4.33
2023-11-10T13:15:34.326Z,2.83
2023-11-10T13:18:04.580Z,2.40
2023-11-10T13:20:36.525Z,2.70
2023-11-10T13:23:05.257Z,3.20
2023-11-10T13:25:34.333Z,3.00
2023-11-10T13:28:03.114Z,3.83
2023-11-10T13:30:32.618Z,3.83
2023-11-10T13:33:01.090Z,5.90
2023-11-10T13:35:32.344Z,5.07
2023-11-10T13:38:01.280Z,3.10
2023-11-10T13:40:30.145Z,4.00
2023-11-10T13:42:58.827Z,2.53
2023-11-10T13:45:28.039Z,2.57
2023-11-10T13:47:56.694Z,5.70
2023-11-10T13:50:25.640Z,5.23
2023-11-10T13:52:56.487Z,5.97
2023-11-10T13:55:26.395Z,4.40
2023-11-10T13:57:56.082Z,16.20
2023-11-10T14:00:25.289Z,9.60
2023-11-10T14:02:54.235Z,5.00
2023-11-10T14:05:23.545Z,7.93
2023-11-10T14:07:52.897Z,9.20
2023-11-10T14:10:26.925Z,11.93
2023-11-10T14:12:57.220Z,7.07
2023-11-10T14:15:26.327Z,4.70
2023-11-10T14:17:56.537Z,5.50
2023-11-10T14:20:26.986Z,19.97
2023-11-10T14:22:56.117Z,12.13
2023-11-10T14:25:27.000Z,9.23
2023-11-10T14:27:56.369Z,4.63
2023-11-10T14:30:24.742Z,10.30
2023-11-10T14:32:58.354Z,6.67
2023-11-10T14:35:28.330Z,8.43
2023-11-10T14:38:00.431Z,8.30
2023-11-10T14:40:32.773Z,6.17
2023-11-10T14:43:04.020Z,6.87
2023-11-10T14:45:40.770Z,8.97
2023-11-10T14:48:14.596Z,6.77
2023-11-10T14:50:43.433Z,8.93
2023-11-10T14:53:19.057Z,9.13
2023-11-10T14:55:50.423Z,7.00
2023-11-10T14:58:20.145Z,16.23
2023-11-10T15:00:49.388Z,6.83
2023-11-10T15:03:19.609Z,7.33
2023-11-10T15:05:49.968Z,7.47
2023-11-10T15:08:20.039Z,8.70
2023-11-10T15:10:49.921Z,6.00
2023-11-10T15:13:19.319Z,6.70
2023-11-10T15:15:50.303Z,11.10
2023-11-10T15:18:21.185Z,5.37
2023-11-10T15:20:50.087Z,6.27
2023-11-10T15:23:20.736Z,5.37
2023-11-10T15:25:51.861Z,5.40
2023-11-10T15:28:21.125Z,6.90
2023-11-10T15:30:51.212Z,8.30
2023-11-10T15:33:20.613Z,6.30
2023-11-10T15:35:51.752Z,7.23
2023-11-10T15:38:22.631Z,12.43
2023-11-10T15:40:53.699Z,5.90
2023-11-10T15:43:23.442Z,7.27
2023-11-10T15:45:52.423Z,8.80
2023-11-10T15:48:22.376Z,11.57
2023-11-10T15:50:54.604Z,6.80
2023-11-10T15:53:23.303Z,8.23
2023-11-10T15:55:54.175Z,4.57
2023-11-10T15:58:23.378Z,6.17
2023-11-10T16:00:53.116Z,6.13
2023-11-10T16:03:22.340Z,6.33
2023-11-10T16:05:52.721Z,5.00
2023-11-10T16:08:21.388Z,5.30
2023-11-10T16:10:51.685Z,8.53
2023-11-10T16:13:22.595Z,8.23
2023-11-10T16:15:52.233Z,6.47
2023-11-10T16:18:23.731Z,6.33
2023-11-10T16:20:52.806Z,6.67
2023-11-10T16:23:22.387Z,7.27
2023-11-10T16:25:51.422Z,7.50
2023-11-10T16:28:22.067Z,10.20
2023-11-10T16:30:53.122Z,8.53
2023-11-10T16:33:23.683Z,9.50
2023-11-10T16:35:52.375Z,12.10
2023-11-10T16:38:22.315Z,9.47
2023-11-10T16:40:52.070Z,10.00
2023-11-10T16:43:22.745Z,6.50
2023-11-10T16:45:55.578Z,5.97
2023-11-10T16:48:24.516Z,6.60
2023-11-10T16:50:53.802Z,7.03
2023-11-10T16:53:22.039Z,7.17
2023-11-10T16:55:51.239Z,6.53
2023-11-10T16:58:21.466Z,7.33
2023-11-10T17:00:52.111Z,9.77
2023-11-10T17:03:20.889Z,9.37
2023-11-10T17:05:51.692Z,6.77
2023-11-10T17:08:21.252Z,6.13
2023-11-10T17:10:50.480Z,5.70
2023-11-10T17:13:19.455Z,7.60
2023-11-10T17:15:50.443Z,18.43
2023-11-10T17:18:19.130Z,14.30
2023-11-10T17:20:48.450Z,7.33
2023-11-10T17:23:20.603Z,10.80
2023-11-10T17:25:49.936Z,8.03
2023-11-10T17:28:18.700Z,9.10
2023-11-10T17:30:50.123Z,12.10
2023-11-10T17:33:20.295Z,7.80
2023-11-10T17:35:53.460Z,9.87
2023-11-10T17:38:23.941Z,10.50
2023-11-10T17:40:55.000Z,12.73
2023-11-10T17:43:25.068Z,8.73
2023-11-10T17:45:54.379Z,16.33
2023-11-10T17:48:24.992Z,7.83
2023-11-10T17:50:53.758Z,9.27
2023-11-10T17:53:24.033Z,9.33
2023-11-10T17:55:54.925Z,7.80
2023-11-10T17:58:23.799Z,9.23
2023-11-10T18:00:53.040Z,13.77
2023-11-10T18:03:21.602Z,15.07
2023-11-10T18:05:51.825Z,15.43
2023-11-10T18:08:21.132Z,14.70
2023-11-10T18:10:53.583Z,12.87
2023-11-10T18:13:22.917Z,14.50
2023-11-10T18:15:52.911Z,17.00
2023-11-10T18:18:22.546Z,16.40
2023-11-10T18:20:53.889Z,18.87
2023-11-10T18:23:22.946Z,16.20
2023-11-10T18:25:51.756Z,19.90
2023-11-10T18:28:20.226Z,19.33
2023-11-10T18:30:49.864Z,19.30
2023-11-10T18:33:18.693Z,14.63
2023-11-10T18:35:48.090Z,18.97
2023-11-10T18:38:18.921Z,13.77
2023-11-10T18:40:47.767Z,19.17
2023-11-10T18:43:17.417Z,15.77
2023-11-10T18:45:49.042Z,20.67
2023-11-10T18:48:18.556Z,22.17
2023-11-10T18:50:47.832Z,16.03
2023-11-10T18:53:20.228Z,14.40
2023-11-10T18:55:49.127Z,12.10
2023-11-10T18:58:17.937Z,10.57
2023-11-10T19:00:46.698Z,9.80
2023-11-10T19:03:15.400Z,10.07
2023-11-10T19:05:44.340Z,10.50
2023-11-10T19:08:13.444Z,10.87
2023-11-10T19:10:43.824Z,9.23
2023-11-10T19:13:13.528Z,11.97
2023-11-10T19:15:42.685Z,11.17
2023-11-10T19:18:11.108Z,8.53
2023-11-10T19:20:39.881Z,6.47
2023-11-10T19:23:09.225Z,9.63
2023-11-10T19:25:38.644Z,7.87
2023-11-10T19:28:08.636Z,7.40
2023-11-10T19:30:37.870Z,8.37
2023-11-10T19:33:06.549Z,10.43
2023-11-10T19:35:37.419Z,13.03
2023-11-10T19:38:06.310Z,9.83
2023-11-10T19:40:38.643Z,9.10
2023-11-10T19:43:09.305Z,14.87
2023-11-10T19:45:47.518Z,9.07
2023-11-10T19:48:17.494Z,13.97
2023-11-10T19:50:46.278Z,8.60
2023-11-10T19:53:17.819Z,9.77
2023-11-10T19:55:46.698Z,9.10
2023-11-10T20:03:25.294Z,10.80
2023-11-10T20:05:54.446Z,7.60
2023-11-10T20:08:24.453Z,7.80
2023-11-10T20:10:53.098Z,6.80
2023-11-10T20:13:25.700Z,5.17
2023-11-10T20:15:54.389Z,5.90
2023-11-10T20:18:23.306Z,6.70
2023-11-10T20:20:52.407Z,6.50
2023-11-10T20:23:21.686Z,8.33
2023-11-10T20:25:51.474Z,7.83
2023-11-10T20:28:25.239Z,8.33
2023-11-10T20:30:53.966Z,9.60
2023-11-10T20:33:23.101Z,7.47
2023-11-10T20:35:51.671Z,7.37
2023-11-10T20:38:21.098Z,6.90
2023-11-10T20:40:49.642Z,7.50
2023-11-10T20:43:18.288Z,8.23
2023-11-10T20:45:52.216Z,9.20
2023-11-10T20:48:21.789Z,6.80
2023-11-10T20:50:52.588Z,7.20
2023-11-10T20:53:22.062Z,13.90
2023-11-10T20:55:52.763Z,9.37
2023-11-10T20:58:21.956Z,8.90
2023-11-10T21:00:53.521Z,9.30
2023-11-10T21:03:22.920Z,6.77
2023-11-10T21:05:51.599Z,6.43
2023-11-10T21:08:20.557Z,5.57
2023-11-10T21:10:50.046Z,5.90
2023-11-10T21:13:19.355Z,6.50
2023-11-10T21:15:49.217Z,6.70
2023-11-10T21:18:19.878Z,3.77
2023-11-10T21:20:49.248Z,6.40
2023-11-10T21:23:17.676Z,6.47
2023-11-10T21:25:47.141Z,4.00
2023-11-10T21:28:16.711Z,4.30
2023-11-10T21:30:48.375Z,7.30
2023-11-10T21:33:18.830Z,8.93
2023-11-10T21:35:47.882Z,9.43
2023-11-10T21:38:16.990Z,7.43
2023-11-10T21:40:46.612Z,10.80
2023-11-10T21:43:15.892Z,12.33
2023-11-10T21:45:48.992Z,13.40
2023-11-10T21:48:19.545Z,15.60
2023-11-10T21:50:48.551Z,13.90
2023-11-10T21:53:17.180Z,16.13
2023-11-10T21:55:47.260Z,13.50
2023-11-10T21:58:18.601Z,17.00
2023-11-10T22:00:47.786Z,14.10
2023-11-10T22:03:19.401Z,14.37
2023-11-10T22:05:48.714Z,11.03
2023-11-10T22:08:19.463Z,11.77
2023-11-10T22:10:49.206Z,11.30
2023-11-10T22:13:18.147Z,9.70
2023-11-10T22:15:47.581Z,9.10
2023-11-10T22:18:16.856Z,8.33
2023-11-10T22:20:46.873Z,8.50
2023-11-10T22:23:16.007Z,9.70
2023-11-10T22:25:44.782Z,8.77
2023-11-10T22:28:14.073Z,11.60
2023-11-10T22:30:43.733Z,10.60
2023-11-10T22:33:13.666Z,12.57
2023-11-10T22:35:43.290Z,11.70
2023-11-10T22:38:13.089Z,15.30
2023-11-10T22:40:42.882Z,13.37
2023-11-10T22:43:13.298Z,14.63
2023-11-10T22:45:42.444Z,14.10
2023-11-10T22:48:11.397Z,10.30
2023-11-10T22:50:40.609Z,13.23
2023-11-10T22:53:09.733Z,8.60
2023-11-10T22:55:40.649Z,8.80
2023-11-10T22:58:09.504Z,11.80
2023-11-10T23:00:45.906Z,12.73
2023-11-10T23:03:16.236Z,13.20
2023-11-10T23:05:45.249Z,12.10
2023-11-10T23:08:15.162Z,11.77
2023-11-10T23:10:46.445Z,8.27
2023-11-10T23:13:15.868Z,7.00
2023-11-10T23:15:45.614Z,6.07
2023-11-10T23:18:16.029Z,5.43
2023-11-10T23:20:44.852Z,4.47
2023-11-10T23:23:15.152Z,6.37
2023-11-10T23:25:45.483Z,5.57
2023-11-10T23:28:14.606Z,5.90
2023-11-10T23:30:44.281Z,6.10
2023-11-10T23:33:14.812Z,6.67
2023-11-10T23:35:50.516Z,3.87
2023-11-10T23:38:23.384Z,4.77
2023-11-10T23:40:53.607Z,5.07
2023-11-10T23:43:22.821Z,12.00
2023-11-10T23:45:51.457Z,11.63
2023-11-10T23:48:23.035Z,12.07
2023-11-10T23:50:59.871Z,6.93
2023-11-10T23:53:30.336Z,8.80
2023-11-10T23:56:08.632Z,4.30
2023-11-10T23:58:44.421Z,19.70
